X  CloseMetar Aviation Weather Data     EKYT Aalborg

Temperature

8°C Temperature

8°C Dewpoint

100% Humidity



Wind

24 KM/H

15 MPH

 7 M/S

13 KTS



110°
East South
East
Current Conditions

Light Rain Light Drizzle Mist Light Rain Light Drizzle Mist
Pressure 1008.92 (hPa) - 29.79 (in)
Visibility 1.9 (mi) - 3 (km)
Airport
Airport-code EKYT

Location Aalborg 55 (km)

Metar:
EKYT 220950Z 11013KT 3000 -RADZ BR FEW005 BKN010 08/08 Q1009

Time: 22-11-2019 10:50